Hurst, Illinois
Current Conditions -  °F | °C
As of 2:52 PM on Saturday 25 Oct 2014 (Local Time) from KMDH Reporting Station
Clear Clear  
Wind Chill: 27°   Ceiling: Unl
Heat Index: 27°   Visibility: 10mi
Dew Point: 12°   Wind: 5mph
Humidity: 39%   Direction: NA
Pressure: 30"   Gusts: NA
Location:  37.83°N, 89.14°W
Report Text: KMDH 251952Z VRB04KT 10SM CLR 27/12 A3000 RMK AO2 SLP155 T02720122
Loading
Personal Weather Stations






























Interactive Weather Map
Tropical Storm Tracking
New forecast layout! Learn more

10-Day Weather Forecast

Advertisements
Track Severe Weather on mobile